Accueil
METAR-TAF:

METAR-TAF

Aéroports :

Aéroport de Southampton

Southampton, Angleterre

latitude: 50-54N, longitude: 001-24W, altitude: 9 m

Observation

Le bulletin a été fait il y a 2 heures et 13 minutes, à 17:50 UTC
Vent 12 kt de sud-ouest, variant entre sud et ouest/sud-ouest
Température 19°C
Humidité 64%
Pression 1015 hPa
Visibilité 10 km ou plus
Nuages épars à une hauteur de 2700 ft

METAR: EGHI 041750Z 22012KT 190V250 9999 SCT027 19/12 Q1015

Heure: 21:03 (20:03 UTC)

Prévision

Le bulletin a été fait il y a 6 heures et 6 minutes, à 13:57 UTC
Prévision valable du 04 à 15 UTC au 04 à 19 UTC
Vent 10 kt de sud-ouest
Visibilité 10 km ou plus
Quelques nuages à une hauteur de 4500 ft

TAF: EGHI 041357Z 0415/0419 22010KT 9999 FEW045

Observations et prévisions météorologiques de plus de 4000 aéroports (messages METAR et TAF).

Les stations disponibles sont représentées par des disques jaunes et rouges sur la carte.

Passer la souris dessus pour voir le nom de la station.

Cliquer dessus pour voir les observations et prévisions météorologiques.

Pour changer de carte: cliquez sur les boutons verts avec une croix noire pour zoomer, sur le bouton vert avec un tiret pour effectuer un zoom arrière, ou sur les flèches vertes pour les cartes adjacentes.


METAR-TAF: